sensor_id;sensor_type;location;lat;lon;timestamp;temperature;humidity
24252;DHT22;12380;51.118;4.176;2023-04-01T00:01:18;9.80;99.90
24252;DHT22;12380;51.118;4.176;2023-04-01T00:03:46;9.80;99.90
24252;DHT22;12380;51.118;4.176;2023-04-01T00:06:16;9.90;99.90
24252;DHT22;12380;51.118;4.176;2023-04-01T00:08:44;9.80;99.90
24252;DHT22;12380;51.118;4.176;2023-04-01T00:11:13;9.90;99.90
24252;DHT22;12380;51.118;4.176;2023-04-01T00:13:39;9.90;99.90
24252;DHT22;12380;51.118;4.176;2023-04-01T00:16:04;9.90;99.90
24252;DHT22;12380;51.118;4.176;2023-04-01T00:18:30;10.00;99.90
24252;DHT22;12380;51.118;4.176;2023-04-01T00:20:56;10.00;99.90
24252;DHT22;12380;51.118;4.176;2023-04-01T00:23:24;9.90;99.90
24252;DHT22;12380;51.118;4.176;2023-04-01T00:25:50;9.90;99.90
24252;DHT22;12380;51.118;4.176;2023-04-01T00:28:17;9.90;99.90
24252;DHT22;12380;51.118;4.176;2023-04-01T00:30:47;10.00;99.90
24252;DHT22;12380;51.118;4.176;2023-04-01T00:33:15;9.90;99.90
24252;DHT22;12380;51.118;4.176;2023-04-01T00:35:43;9.80;99.90
24252;DHT22;12380;51.118;4.176;2023-04-01T00:38:10;9.80;99.90
24252;DHT22;12380;51.118;4.176;2023-04-01T00:40:44;9.80;99.90
24252;DHT22;12380;51.118;4.176;2023-04-01T00:43:15;9.90;99.90
24252;DHT22;12380;51.118;4.176;2023-04-01T00:45:44;9.90;99.90
24252;DHT22;12380;51.118;4.176;2023-04-01T00:50:43;9.80;99.90
24252;DHT22;12380;51.118;4.176;2023-04-01T00:53:13;9.80;99.90
24252;DHT22;12380;51.118;4.176;2023-04-01T00:55:46;9.80;99.90
24252;DHT22;12380;51.118;4.176;2023-04-01T00:58:17;9.80;99.90
24252;DHT22;12380;51.118;4.176;2023-04-01T01:00:45;9.80;99.90
24252;DHT22;12380;51.118;4.176;2023-04-01T01:03:12;9.80;99.90
24252;DHT22;12380;51.118;4.176;2023-04-01T01:08:32;9.80;99.90
24252;DHT22;12380;51.118;4.176;2023-04-01T01:11:06;9.90;99.90
24252;DHT22;12380;51.118;4.176;2023-04-01T01:13:48;9.90;99.90
24252;DHT22;12380;51.118;4.176;2023-04-01T01:16:27;9.90;99.90
24252;DHT22;12380;51.118;4.176;2023-04-01T01:27:16;9.80;99.90
24252;DHT22;12380;51.118;4.176;2023-04-01T01:32:52;9.70;99.90
24252;DHT22;12380;51.118;4.176;2023-04-01T01:35:49;9.60;99.90
24252;DHT22;12380;51.118;4.176;2023-04-01T01:38:18;9.60;99.90
24252;DHT22;12380;51.118;4.176;2023-04-01T01:40:49;9.70;99.90
24252;DHT22;12380;51.118;4.176;2023-04-01T01:43:22;9.70;99.90
24252;DHT22;12380;51.118;4.176;2023-04-01T01:45:55;9.60;99.90
24252;DHT22;12380;51.118;4.176;2023-04-01T01:48:22;9.70;99.90
24252;DHT22;12380;51.118;4.176;2023-04-01T01:50:49;9.60;99.90
24252;DHT22;12380;51.118;4.176;2023-04-01T01:53:15;9.60;99.90
24252;DHT22;12380;51.118;4.176;2023-04-01T01:55:43;9.60;99.90
24252;DHT22;12380;51.118;4.176;2023-04-01T01:58:29;9.50;99.90
24252;DHT22;12380;51.118;4.176;2023-04-01T02:01:05;9.50;99.90
24252;DHT22;12380;51.118;4.176;2023-04-01T02:03:36;9.50;99.90
24252;DHT22;12380;51.118;4.176;2023-04-01T02:06:07;9.60;99.90
24252;DHT22;12380;51.118;4.176;2023-04-01T02:11:33;9.50;99.90
24252;DHT22;12380;51.118;4.176;2023-04-01T02:14:10;9.60;99.90
24252;DHT22;12380;51.118;4.176;2023-04-01T02:16:54;9.50;99.90
24252;DHT22;12380;51.118;4.176;2023-04-01T02:19:23;9.40;99.90
24252;DHT22;12380;51.118;4.176;2023-04-01T02:21:55;9.40;99.90
24252;DHT22;12380;51.118;4.176;2023-04-01T02:24:25;9.40;99.90
24252;DHT22;12380;51.118;4.176;2023-04-01T02:26:52;9.50;99.90
24252;DHT22;12380;51.118;4.176;2023-04-01T02:29:22;9.50;99.90
24252;DHT22;12380;51.118;4.176;2023-04-01T02:31:52;9.40;99.90
24252;DHT22;12380;51.118;4.176;2023-04-01T02:34:21;9.40;99.90
24252;DHT22;12380;51.118;4.176;2023-04-01T02:36:49;9.50;99.90
24252;DHT22;12380;51.118;4.176;2023-04-01T02:39:17;9.50;99.90
24252;DHT22;12380;51.118;4.176;2023-04-01T02:41:46;9.50;99.90
24252;DHT22;12380;51.118;4.176;2023-04-01T02:44:13;9.50;99.90
24252;DHT22;12380;51.118;4.176;2023-04-01T02:46:39;9.50;99.90
24252;DHT22;12380;51.118;4.176;2023-04-01T02:49:05;9.50;99.90
24252;DHT22;12380;51.118;4.176;2023-04-01T02:51:32;9.40;99.90
24252;DHT22;12380;51.118;4.176;2023-04-01T02:53:58;9.40;99.90
24252;DHT22;12380;51.118;4.176;2023-04-01T02:56:23;9.40;99.90
24252;DHT22;12380;51.118;4.176;2023-04-01T02:58:49;9.40;99.90
24252;DHT22;12380;51.118;4.176;2023-04-01T03:01:16;9.40;99.90
24252;DHT22;12380;51.118;4.176;2023-04-01T03:03:41;9.40;99.90
24252;DHT22;12380;51.118;4.176;2023-04-01T03:06:09;9.50;99.90
24252;DHT22;12380;51.118;4.176;2023-04-01T03:08:36;9.60;99.90
24252;DHT22;12380;51.118;4.176;2023-04-01T03:11:04;9.60;99.90
24252;DHT22;12380;51.118;4.176;2023-04-01T03:13:31;9.70;99.90
24252;DHT22;12380;51.118;4.176;2023-04-01T03:15:59;9.50;99.90
24252;DHT22;12380;51.118;4.176;2023-04-01T03:18:25;9.50;99.90
24252;DHT22;12380;51.118;4.176;2023-04-01T03:20:51;9.50;99.90
24252;DHT22;12380;51.118;4.176;2023-04-01T03:23:17;9.50;99.90
24252;DHT22;12380;51.118;4.176;2023-04-01T03:25:50;9.40;99.90
24252;DHT22;12380;51.118;4.176;2023-04-01T03:28:18;9.40;99.90
24252;DHT22;12380;51.118;4.176;2023-04-01T03:30:44;9.40;99.90
24252;DHT22;12380;51.118;4.176;2023-04-01T03:33:10;9.50;99.90
24252;DHT22;12380;51.118;4.176;2023-04-01T03:35:36;9.50;99.90
24252;DHT22;12380;51.118;4.176;2023-04-01T03:38:04;9.40;99.90
24252;DHT22;12380;51.118;4.176;2023-04-01T03:40:30;9.50;99.90
24252;DHT22;12380;51.118;4.176;2023-04-01T03:42:56;9.60;99.90
24252;DHT22;12380;51.118;4.176;2023-04-01T03:45:22;9.40;99.90
24252;DHT22;12380;51.118;4.176;2023-04-01T03:47:48;9.40;99.90
24252;DHT22;12380;51.118;4.176;2023-04-01T03:50:16;9.40;99.90
24252;DHT22;12380;51.118;4.176;2023-04-01T03:52:41;9.40;99.90
24252;DHT22;12380;51.118;4.176;2023-04-01T03:55:10;9.40;99.90
24252;DHT22;12380;51.118;4.176;2023-04-01T03:57:37;9.40;99.90
24252;DHT22;12380;51.118;4.176;2023-04-01T04:00:03;9.40;99.90
24252;DHT22;12380;51.118;4.176;2023-04-01T04:02:29;9.50;99.90
24252;DHT22;12380;51.118;4.176;2023-04-01T04:04:55;9.50;99.90
24252;DHT22;12380;51.118;4.176;2023-04-01T04:07:23;9.40;99.90
24252;DHT22;12380;51.118;4.176;2023-04-01T04:09:49;9.40;99.90
24252;DHT22;12380;51.118;4.176;2023-04-01T04:12:15;9.40;99.90
24252;DHT22;12380;51.118;4.176;2023-04-01T04:14:40;9.40;99.90
24252;DHT22;12380;51.118;4.176;2023-04-01T04:17:06;9.50;99.90
24252;DHT22;12380;51.118;4.176;2023-04-01T04:19:33;9.50;99.90
24252;DHT22;12380;51.118;4.176;2023-04-01T04:22:01;9.50;99.90
24252;DHT22;12380;51.118;4.176;2023-04-01T04:24:27;9.50;99.90
24252;DHT22;12380;51.118;4.176;2023-04-01T04:26:53;9.50;99.90
24252;DHT22;12380;51.118;4.176;2023-04-01T04:29:18;9.60;99.90
24252;DHT22;12380;51.118;4.176;2023-04-01T04:31:44;9.40;99.90
24252;DHT22;12380;51.118;4.176;2023-04-01T04:34:11;9.50;99.90
24252;DHT22;12380;51.118;4.176;2023-04-01T04:36:37;9.40;99.90
24252;DHT22;12380;51.118;4.176;2023-04-01T04:39:03;9.40;99.90
24252;DHT22;12380;51.118;4.176;2023-04-01T04:41:29;9.30;99.90
24252;DHT22;12380;51.118;4.176;2023-04-01T04:43:56;9.30;99.90
24252;DHT22;12380;51.118;4.176;2023-04-01T04:46:22;9.30;99.90
24252;DHT22;12380;51.118;4.176;2023-04-01T04:48:51;9.30;99.90
24252;DHT22;12380;51.118;4.176;2023-04-01T04:51:18;9.30;99.90
24252;DHT22;12380;51.118;4.176;2023-04-01T04:53:46;9.40;99.90
24252;DHT22;12380;51.118;4.176;2023-04-01T04:56:12;9.40;99.90
24252;DHT22;12380;51.118;4.176;2023-04-01T04:58:39;9.40;99.90
24252;DHT22;12380;51.118;4.176;2023-04-01T05:01:14;9.40;99.90
24252;DHT22;12380;51.118;4.176;2023-04-01T05:03:40;9.50;99.90
24252;DHT22;12380;51.118;4.176;2023-04-01T05:06:07;9.50;99.90
24252;DHT22;12380;51.118;4.176;2023-04-01T05:08:36;9.30;99.90
24252;DHT22;12380;51.118;4.176;2023-04-01T05:11:02;9.20;99.90
24252;DHT22;12380;51.118;4.176;2023-04-01T05:13:29;9.30;99.90
24252;DHT22;12380;51.118;4.176;2023-04-01T05:15:54;9.20;99.90
24252;DHT22;12380;51.118;4.176;2023-04-01T05:18:21;9.20;99.90
24252;DHT22;12380;51.118;4.176;2023-04-01T05:20:51;9.20;99.90
24252;DHT22;12380;51.118;4.176;2023-04-01T05:23:21;9.20;99.90
24252;DHT22;12380;51.118;4.176;2023-04-01T05:25:48;9.30;99.90
24252;DHT22;12380;51.118;4.176;2023-04-01T05:28:14;9.30;99.90
24252;DHT22;12380;51.118;4.176;2023-04-01T05:30:41;9.20;99.90
24252;DHT22;12380;51.118;4.176;2023-04-01T05:33:08;9.20;99.90
24252;DHT22;12380;51.118;4.176;2023-04-01T05:35:34;9.20;99.90
24252;DHT22;12380;51.118;4.176;2023-04-01T05:38:02;9.20;99.90
24252;DHT22;12380;51.118;4.176;2023-04-01T05:40:29;9.10;99.90
24252;DHT22;12380;51.118;4.176;2023-04-01T05:42:55;9.20;99.90
24252;DHT22;12380;51.118;4.176;2023-04-01T05:45:21;9.20;99.90
24252;DHT22;12380;51.118;4.176;2023-04-01T05:47:46;9.10;99.90
24252;DHT22;12380;51.118;4.176;2023-04-01T05:50:12;9.10;99.90
24252;DHT22;12380;51.118;4.176;2023-04-01T05:52:40;9.00;99.90
24252;DHT22;12380;51.118;4.176;2023-04-01T05:55:06;9.00;99.90
24252;DHT22;12380;51.118;4.176;2023-04-01T05:57:32;9.00;99.90
24252;DHT22;12380;51.118;4.176;2023-04-01T05:59:58;9.10;99.90
24252;DHT22;12380;51.118;4.176;2023-04-01T06:02:24;9.10;99.90
24252;DHT22;12380;51.118;4.176;2023-04-01T06:05:03;9.10;99.90
24252;DHT22;12380;51.118;4.176;2023-04-01T06:07:36;9.20;99.90
24252;DHT22;12380;51.118;4.176;2023-04-01T06:10:19;9.10;99.90
24252;DHT22;12380;51.118;4.176;2023-04-01T06:12:59;9.20;99.90
24252;DHT22;12380;51.118;4.176;2023-04-01T06:15:40;9.20;99.90
24252;DHT22;12380;51.118;4.176;2023-04-01T06:32:30;9.20;99.90
24252;DHT22;12380;51.118;4.176;2023-04-01T06:40:53;9.20;99.90
24252;DHT22;12380;51.118;4.176;2023-04-01T06:44:28;9.30;99.90
24252;DHT22;12380;51.118;4.176;2023-04-01T06:46:50;9.20;99.90
24252;DHT22;12380;51.118;4.176;2023-04-01T06:49:27;9.20;99.90
24252;DHT22;12380;51.118;4.176;2023-04-01T06:52:20;9.20;99.90
24252;DHT22;12380;51.118;4.176;2023-04-01T06:54:53;9.20;99.90
24252;DHT22;12380;51.118;4.176;2023-04-01T06:57:30;9.20;99.90
24252;DHT22;12380;51.118;4.176;2023-04-01T07:00:00;9.20;99.90
24252;DHT22;12380;51.118;4.176;2023-04-01T07:02:36;9.20;99.90
24252;DHT22;12380;51.118;4.176;2023-04-01T07:05:04;9.30;99.90
24252;DHT22;12380;51.118;4.176;2023-04-01T07:08:01;9.40;99.90
24252;DHT22;12380;51.118;4.176;2023-04-01T07:10:50;9.40;99.90
24252;DHT22;12380;51.118;4.176;2023-04-01T07:13:27;9.40;99.90
24252;DHT22;12380;51.118;4.176;2023-04-01T07:18:47;9.40;99.90
24252;DHT22;12380;51.118;4.176;2023-04-01T07:24:22;9.50;99.90
24252;DHT22;12380;51.118;4.176;2023-04-01T07:26:54;9.50;99.90
24252;DHT22;12380;51.118;4.176;2023-04-01T07:29:21;9.70;99.90
24252;DHT22;12380;51.118;4.176;2023-04-01T07:50:34;9.50;99.90
24252;DHT22;12380;51.118;4.176;2023-04-01T07:56:09;9.50;99.90
24252;DHT22;12380;51.118;4.176;2023-04-01T08:12:30;9.80;99.90
24252;DHT22;12380;51.118;4.176;2023-04-01T08:22:51;10.10;99.90
24252;DHT22;12380;51.118;4.176;2023-04-01T08:25:25;10.10;99.90
24252;DHT22;12380;51.118;4.176;2023-04-01T08:27:56;10.10;99.90
24252;DHT22;12380;51.118;4.176;2023-04-01T08:30:38;10.10;99.90
24252;DHT22;12380;51.118;4.176;2023-04-01T08:33:08;10.10;99.90
24252;DHT22;12380;51.118;4.176;2023-04-01T08:35:46;10.20;99.90
24252;DHT22;12380;51.118;4.176;2023-04-01T08:38:31;10.00;99.90
24252;DHT22;12380;51.118;4.176;2023-04-01T08:55:20;10.30;99.90
24252;DHT22;12380;51.118;4.176;2023-04-01T09:00:46;10.40;99.90
24252;DHT22;12380;51.118;4.176;2023-04-01T09:09:24;10.30;99.90
24252;DHT22;12380;51.118;4.176;2023-04-01T09:28:05;10.50;99.90
24252;DHT22;12380;51.118;4.176;2023-04-01T09:36:03;10.30;99.90
24252;DHT22;12380;51.118;4.176;2023-04-01T09:38:57;10.40;99.90
24252;DHT22;12380;51.118;4.176;2023-04-01T09:44:48;10.40;99.90
24252;DHT22;12380;51.118;4.176;2023-04-01T10:26:36;10.80;99.90
24252;DHT22;12380;51.118;4.176;2023-04-01T10:35:05;10.60;99.90
24252;DHT22;12380;51.118;4.176;2023-04-01T11:03:46;10.60;99.90
24252;DHT22;12380;51.118;4.176;2023-04-01T11:09:44;10.80;99.90
24252;DHT22;12380;51.118;4.176;2023-04-01T11:12:33;10.80;99.90
24252;DHT22;12380;51.118;4.176;2023-04-01T11:28:51;11.00;99.90
24252;DHT22;12380;51.118;4.176;2023-04-01T11:40:14;10.60;99.90
24252;DHT22;12380;51.118;4.176;2023-04-01T11:45:51;10.50;99.90
24252;DHT22;12380;51.118;4.176;2023-04-01T11:48:37;10.60;99.90
24252;DHT22;12380;51.118;4.176;2023-04-01T12:00:02;10.80;99.90
24252;DHT22;12380;51.118;4.176;2023-04-01T12:22:10;11.00;99.90
24252;DHT22;12380;51.118;4.176;2023-04-01T12:27:42;10.90;99.90
24252;DHT22;12380;51.118;4.176;2023-04-01T12:30:39;10.70;99.90
24252;DHT22;12380;51.118;4.176;2023-04-01T12:33:18;10.70;99.90
24252;DHT22;12380;51.118;4.176;2023-04-01T12:45:38;11.00;99.90
24252;DHT22;12380;51.118;4.176;2023-04-01T12:55:41;10.80;99.90
24252;DHT22;12380;51.118;4.176;2023-04-01T13:22:35;10.80;99.90
24252;DHT22;12380;51.118;4.176;2023-04-01T13:25:23;10.80;99.90
24252;DHT22;12380;51.118;4.176;2023-04-01T13:41:50;11.10;99.90
24252;DHT22;12380;51.118;4.176;2023-04-01T13:52:26;11.40;99.90
24252;DHT22;12380;51.118;4.176;2023-04-01T14:01:04;11.20;99.90
24252;DHT22;12380;51.118;4.176;2023-04-01T14:06:20;11.20;99.90
24252;DHT22;12380;51.118;4.176;2023-04-01T14:09:20;11.20;99.90
24252;DHT22;12380;51.118;4.176;2023-04-01T14:12:11;11.20;99.90
24252;DHT22;12380;51.118;4.176;2023-04-01T14:17:46;11.20;99.90
24252;DHT22;12380;51.118;4.176;2023-04-01T14:26:04;11.10;99.90
24252;DHT22;12380;51.118;4.176;2023-04-01T14:47:44;10.70;99.90
24252;DHT22;12380;51.118;4.176;2023-04-01T14:50:18;10.70;99.90
24252;DHT22;12380;51.118;4.176;2023-04-01T14:58:19;10.90;99.90
24252;DHT22;12380;51.118;4.176;2023-04-01T15:03:55;10.80;99.90
24252;DHT22;12380;51.118;4.176;2023-04-01T15:20:39;10.60;99.90
24252;DHT22;12380;51.118;4.176;2023-04-01T15:26:22;10.50;99.90
24252;DHT22;12380;51.118;4.176;2023-04-01T15:29:11;10.50;99.90
24252;DHT22;12380;51.118;4.176;2023-04-01T15:40:22;10.30;99.90
24252;DHT22;12380;51.118;4.176;2023-04-01T15:43:49;10.30;99.90
24252;DHT22;12380;51.118;4.176;2023-04-01T15:46:18;10.20;99.90
24252;DHT22;12380;51.118;4.176;2023-04-01T16:00:28;10.20;99.90
24252;DHT22;12380;51.118;4.176;2023-04-01T16:10:43;10.10;99.90
24252;DHT22;12380;51.118;4.176;2023-04-01T16:21:46;10.20;99.90
24252;DHT22;12380;51.118;4.176;2023-04-01T16:24:41;10.20;99.90
24252;DHT22;12380;51.118;4.176;2023-04-01T16:30:42;9.90;99.90
24252;DHT22;12380;51.118;4.176;2023-04-01T16:32:54;9.90;99.90
24252;DHT22;12380;51.118;4.176;2023-04-01T16:38:33;9.90;99.90
24252;DHT22;12380;51.118;4.176;2023-04-01T16:41:16;9.90;99.90
24252;DHT22;12380;51.118;4.176;2023-04-01T16:51:35;9.80;99.90
24252;DHT22;12380;51.118;4.176;2023-04-01T16:54:45;9.90;99.90
24252;DHT22;12380;51.118;4.176;2023-04-01T17:02:13;9.80;99.90
24252;DHT22;12380;51.118;4.176;2023-04-01T17:15:34;10.00;99.90
24252;DHT22;12380;51.118;4.176;2023-04-01T17:28:57;9.90;99.90
24252;DHT22;12380;51.118;4.176;2023-04-01T17:31:36;10.00;99.90
24252;DHT22;12380;51.118;4.176;2023-04-01T17:39:44;9.60;99.90
24252;DHT22;12380;51.118;4.176;2023-04-01T17:45:09;9.60;99.90
24252;DHT22;12380;51.118;4.176;2023-04-01T17:50:24;9.60;99.90
24252;DHT22;12380;51.118;4.176;2023-04-01T17:58:18;9.60;99.90
24252;DHT22;12380;51.118;4.176;2023-04-01T18:12:14;9.20;99.90
24252;DHT22;12380;51.118;4.176;2023-04-01T18:15:13;9.20;99.90
24252;DHT22;12380;51.118;4.176;2023-04-01T18:23:56;9.30;99.90
24252;DHT22;12380;51.118;4.176;2023-04-01T18:26:34;9.30;99.90
24252;DHT22;12380;51.118;4.176;2023-04-01T18:29:10;9.40;99.90
24252;DHT22;12380;51.118;4.176;2023-04-01T18:32:19;9.40;99.90
24252;DHT22;12380;51.118;4.176;2023-04-01T18:40:50;9.10;99.90
24252;DHT22;12380;51.118;4.176;2023-04-01T18:47:14;9.10;99.90
24252;DHT22;12380;51.118;4.176;2023-04-01T18:53:08;9.00;99.90
24252;DHT22;12380;51.118;4.176;2023-04-01T18:55:55;9.00;99.90
24252;DHT22;12380;51.118;4.176;2023-04-01T18:58:26;9.00;99.90
24252;DHT22;12380;51.118;4.176;2023-04-01T19:03:41;9.00;99.90
24252;DHT22;12380;51.118;4.176;2023-04-01T19:06:20;9.20;99.90
24252;DHT22;12380;51.118;4.176;2023-04-01T19:08:52;9.10;99.90
24252;DHT22;12380;51.118;4.176;2023-04-01T19:11:39;9.10;99.90
24252;DHT22;12380;51.118;4.176;2023-04-01T19:28:16;9.00;99.90
24252;DHT22;12380;51.118;4.176;2023-04-01T19:31:19;9.00;99.90
24252;DHT22;12380;51.118;4.176;2023-04-01T19:34:02;9.00;99.90
24252;DHT22;12380;51.118;4.176;2023-04-01T19:47:35;9.20;99.90
24252;DHT22;12380;51.118;4.176;2023-04-01T19:52:39;9.20;99.90
24252;DHT22;12380;51.118;4.176;2023-04-01T19:55:42;9.20;99.90
24252;DHT22;12380;51.118;4.176;2023-04-01T20:00:47;9.20;99.90
24252;DHT22;12380;51.118;4.176;2023-04-01T20:04:23;9.20;99.90
24252;DHT22;12380;51.118;4.176;2023-04-01T20:14:40;9.30;99.90
24252;DHT22;12380;51.118;4.176;2023-04-01T20:25:26;9.60;99.90
24252;DHT22;12380;51.118;4.176;2023-04-01T20:27:58;9.50;99.90
24252;DHT22;12380;51.118;4.176;2023-04-01T20:44:31;9.50;99.90
24252;DHT22;12380;51.118;4.176;2023-04-01T20:58:17;9.60;99.90
24252;DHT22;12380;51.118;4.176;2023-04-01T21:01:15;9.70;99.90
24252;DHT22;12380;51.118;4.176;2023-04-01T21:09:25;9.60;99.90
24252;DHT22;12380;51.118;4.176;2023-04-01T21:26:11;10.10;99.90
24252;DHT22;12380;51.118;4.176;2023-04-01T21:43:17;10.10;99.90
24252;DHT22;12380;51.118;4.176;2023-04-01T21:49:05;10.20;99.90
24252;DHT22;12380;51.118;4.176;2023-04-01T22:05:42;10.10;99.90
24252;DHT22;12380;51.118;4.176;2023-04-01T22:16:17;9.90;99.90
24252;DHT22;12380;51.118;4.176;2023-04-01T22:19:04;10.00;99.90
24252;DHT22;12380;51.118;4.176;2023-04-01T22:26:56;9.90;99.90
24252;DHT22;12380;51.118;4.176;2023-04-01T22:32:18;10.00;99.90
24252;DHT22;12380;51.118;4.176;2023-04-01T22:40:16;9.80;99.90
24252;DHT22;12380;51.118;4.176;2023-04-01T22:42:57;9.60;99.90
24252;DHT22;12380;51.118;4.176;2023-04-01T22:48:11;9.70;99.90
24252;DHT22;12380;51.118;4.176;2023-04-01T22:56:35;9.90;99.90
24252;DHT22;12380;51.118;4.176;2023-04-01T22:59:13;9.90;99.90
24252;DHT22;12380;51.118;4.176;2023-04-01T23:02:13;9.80;99.90
24252;DHT22;12380;51.118;4.176;2023-04-01T23:04:42;9.70;99.90
24252;DHT22;12380;51.118;4.176;2023-04-01T23:10:31;9.50;99.90
24252;DHT22;12380;51.118;4.176;2023-04-01T23:13:10;9.60;99.90
24252;DHT22;12380;51.118;4.176;2023-04-01T23:15:42;9.60;99.90
24252;DHT22;12380;51.118;4.176;2023-04-01T23:18:25;9.70;99.90
24252;DHT22;12380;51.118;4.176;2023-04-01T23:20:59;10.00;99.90
24252;DHT22;12380;51.118;4.176;2023-04-01T23:29:02;9.60;99.90
24252;DHT22;12380;51.118;4.176;2023-04-01T23:36:44;9.30;99.90
24252;DHT22;12380;51.118;4.176;2023-04-01T23:39:33;9.40;99.90
24252;DHT22;12380;51.118;4.176;2023-04-01T23:42:22;9.40;99.90
24252;DHT22;12380;51.118;4.176;2023-04-01T23:44:51;9.30;99.90
24252;DHT22;12380;51.118;4.176;2023-04-01T23:47:24;9.40;99.90
24252;DHT22;12380;51.118;4.176;2023-04-01T23:52:27;9.40;99.90
24252;DHT22;12380;51.118;4.176;2023-04-01T23:55:01;9.40;99.90
24252;DHT22;12380;51.118;4.176;2023-04-01T23:57:35;9.30;99.90
